Weather History for Wahoo, NE

Change the Weather History Date:

Sunday, May 6, 2012

  Actual Average Record
Temperature  
Mean Temperature 66 °F -  
Max Temperature 75 °F 71 °F 93 °F (1966)
Min Temperature 58 °F 47 °F 31 °F (1992)
Cooling Degree Days 2    
Growing Degree Days 16 (Base 50)    
Moisture  
Dew Point 59 °F    
Average Humidity 80    
Maximum Humidity 91    
Minimum Humidity 66    
Precipitation  
Precipitation 0.73 in - - ()
Sea Level Pressure  
Sea Level Pressure 29.92 in    
Wind  
Wind Speed 15 mph (North)    
Max Wind Speed 31 mph    
Max Gust Speed 39 mph    
Visibility 10 miles    
Events Rain    
Averages and records for this station are not official NWS values.
T = Trace of Precipitation, MM = Missing Value Source: NWS Daily Summary

Daily Weather History Graph

Daily Weather History Graph

Search for Another Location

Airport:

Trip Planner

Search our weather history database for the weather conditions in past years. The results will help you decide how hot, cold, wet, or windy it might be!

Date:

Astronomy

May. 06, 2012 Rise Set
Actual Time 6:17 AM CDT 8:29 PM CDT
Civil Twilight 5:46 AM CDT 9:00 PM CDT
Nautical Twilight 5:09 AM CDT 9:37 PM CDT
Astronomical Twilight 4:27 AM CDT 10:19 PM CDT
Moon 9:36 PM CDT (5/6) 6:27 AM CDT (5/6)
Length of Visible Light 15h 13m
Length of Day
14h 12m
Full, 100% of the Moon is Illuminated
May 6
Full
May 12
Last Quarter
May 20
New
May 28
First Quarter
Jun 4
Full

Hourly Weather History & Observations

Time (CDT) Temp. Dew Point Humidity Pressure Visibility Wind Dir Wind Speed Gust Speed Precip Events Conditions
12:15 AM 75.0 °F 67.6 °F 78% 29.74 in 10.0 mi South 9.2 mph - N/A   Scattered Clouds
12:35 AM 75.4 °F 68.0 °F 78% 29.76 in 10.0 mi South 10.4 mph - N/A   Overcast
12:55 AM 75.6 °F 67.3 °F 75% 29.76 in 10.0 mi South 10.4 mph - N/A   Mostly Cloudy
1:15 AM 73.8 °F 66.7 °F 79% 29.77 in 10.0 mi SSE 8.1 mph - N/A   Mostly Cloudy
1:35 AM 74.3 °F 66.6 °F 77% 29.78 in 10.0 mi SE 3.5 mph - N/A   Mostly Cloudy
1:55 AM 73.8 °F 66.6 °F 78% 29.79 in 10.0 mi SE 3.5 mph - N/A   Overcast
2:15 AM 73.8 °F 66.4 °F 78% 29.80 in 10.0 mi Calm Calm - N/A   Overcast
2:35 AM 73.9 °F 66.4 °F 77% 29.80 in 10.0 mi Calm Calm - N/A   Overcast
2:55 AM 73.2 °F 66.4 °F 79% 29.79 in 10.0 mi East 4.6 mph - N/A   Overcast
3:15 AM 73.8 °F 65.7 °F 76% 29.80 in 10.0 mi NNW 13.8 mph 20.7 mph N/A   Overcast
3:35 AM 73.9 °F 61.9 °F 66% 29.76 in 10.0 mi NNE 21.9 mph 27.6 mph N/A   Overcast
3:55 AM 70.2 °F 59.0 °F 68% 29.72 in 7.0 mi NNE 31.1 mph 39.1 mph N/A   Overcast
4:15 AM 64.4 °F 61.3 °F 90% 29.86 in 1.8 mi NNE 3.5 mph 36.8 mph 0.36 in Rain Heavy Rain
4:35 AM 64.4 °F 61.7 °F 91% 29.80 in 10.0 mi ENE 19.6 mph 28.8 mph 0.57 in Rain Light Rain
4:55 AM 65.5 °F 62.1 °F 89% 29.91 in 10.0 mi WNW 31.1 mph 36.8 mph 0.58 in Rain Light Rain
5:15 AM 64.8 °F 61.3 °F 89% 29.87 in 5.0 mi North 27.6 mph 38.0 mph 0.07 in Rain Rain
5:35 AM 64.4 °F 60.6 °F 88% 29.84 in 10.0 mi NNE 24.2 mph 34.5 mph 0.09 in Rain Light Rain
5:55 AM 64.4 °F 59.4 °F 84% 29.84 in 10.0 mi NNE 24.2 mph 28.8 mph 0.10 in Rain Light Rain
6:15 AM 63.7 °F 59.0 °F 85% 29.88 in 10.0 mi North 16.1 mph 23.0 mph N/A   Light Drizzle
6:35 AM 63.7 °F 58.5 °F 83% 29.88 in 10.0 mi NNE 18.4 mph 28.8 mph N/A   Overcast
6:55 AM 63.5 °F 58.8 °F 85% 29.87 in 10.0 mi NNE 20.7 mph 26.5 mph N/A   Overcast
7:15 AM 63.1 °F 58.8 °F 86% 29.86 in 10.0 mi ENE 21.9 mph 28.8 mph N/A   Scattered Clouds
7:35 AM 63.1 °F 59.0 °F 86% 29.86 in 10.0 mi ENE 21.9 mph 27.6 mph N/A   Clear
7:55 AM 63.7 °F 58.8 °F 84% 29.87 in 10.0 mi NE 18.4 mph 27.6 mph N/A   Clear
8:15 AM 64.4 °F 58.5 °F 81% 29.88 in 10.0 mi NE 18.4 mph - N/A   Clear
8:35 AM 65.3 °F 59.0 °F 80% 29.86 in 10.0 mi ENE 19.6 mph 25.3 mph N/A   Clear
8:55 AM 66.2 °F 58.6 °F 77% 29.86 in 10.0 mi NE 17.3 mph 24.2 mph N/A   Clear
9:15 AM 67.3 °F 59.9 °F 77% 29.89 in 10.0 mi North 10.4 mph - N/A   Clear
9:35 AM 68.2 °F 60.4 °F 76% 29.91 in 10.0 mi North 15.0 mph - N/A   Clear
9:55 AM 67.6 °F 60.6 °F 78% 29.91 in 10.0 mi NNW 13.8 mph - N/A   Clear
10:15 AM 68.0 °F 61.2 °F 79% 29.92 in 10.0 mi NNW 16.1 mph 20.7 mph N/A   Mostly Cloudy
10:35 AM 68.9 °F 61.2 °F 76% 29.93 in 10.0 mi North 13.8 mph - N/A   Mostly Cloudy
10:55 AM 69.1 °F 60.8 °F 75% 29.94 in 10.0 mi North 15.0 mph - N/A   Overcast
11:15 AM 68.7 °F 60.6 °F 75% 29.95 in 10.0 mi North 12.7 mph - N/A   Overcast
11:35 AM 68.9 °F 60.8 °F 75% 29.95 in 10.0 mi NNW 16.1 mph - N/A   Overcast
11:55 AM 68.9 °F 61.5 °F 77% 29.95 in 10.0 mi NNW 16.1 mph 23.0 mph N/A   Overcast
12:15 PM 69.1 °F 61.7 °F 77% 29.95 in 10.0 mi NNW 17.3 mph 24.2 mph N/A   Overcast
12:35 PM 68.4 °F 60.8 °F 77% 29.96 in 10.0 mi North 18.4 mph 27.6 mph N/A   Overcast
12:55 PM 68.9 °F 60.4 °F 74% 29.97 in 10.0 mi North 19.6 mph - N/A   Overcast
1:15 PM 68.4 °F 61.0 °F 77% 29.97 in 10.0 mi NNW 23.0 mph 28.8 mph N/A   Overcast
1:35 PM 68.7 °F 61.7 °F 78% 29.97 in 10.0 mi NNW 23.0 mph 26.5 mph N/A   Overcast
1:55 PM 67.1 °F 59.7 °F 77% 29.97 in 10.0 mi NNW 24.2 mph 31.1 mph N/A   Mostly Cloudy
2:15 PM 66.7 °F 59.9 °F 79% 29.98 in 10.0 mi NNW 21.9 mph - N/A   Mostly Cloudy
2:55 PM 64.4 °F 59.2 °F 83% 29.98 in 10.0 mi NNW 24.2 mph 32.2 mph N/A Rain Light Rain
3:15 PM 63.7 °F 58.5 °F 83% 30.00 in 7.0 mi NNW 23.0 mph 29.9 mph 0.01 in Rain Light Rain
3:35 PM 63.0 °F 58.3 °F 85% 30.00 in 10.0 mi NNW 20.7 mph 28.8 mph 0.01 in Rain Light Rain
3:55 PM 63.5 °F 58.8 °F 85% 29.98 in 10.0 mi NNW 19.6 mph 27.6 mph 0.01 in   Scattered Clouds
4:15 PM 63.5 °F 58.3 °F 83% 29.98 in 10.0 mi NNW 24.2 mph 31.1 mph N/A   Light Drizzle
4:35 PM 62.2 °F 58.1 °F 86% 29.97 in 10.0 mi North 17.3 mph 28.8 mph N/A   Overcast
4:55 PM 62.1 °F 57.7 °F 86% 29.94 in 10.0 mi North 25.3 mph 31.1 mph N/A Rain Light Rain
5:15 PM 61.5 °F 57.0 °F 85% 29.97 in 10.0 mi NNW 18.4 mph 28.8 mph N/A   Overcast
5:35 PM 61.2 °F 57.4 °F 87% 29.98 in 10.0 mi NNW 19.6 mph 25.3 mph 0.01 in Rain Rain
5:55 PM 61.7 °F 56.7 °F 84% 29.99 in 10.0 mi North 18.4 mph - 0.01 in   Overcast
6:15 PM 62.1 °F 56.7 °F 82% 29.98 in 10.0 mi NNW 21.9 mph 27.6 mph N/A Rain Light Rain
6:35 PM 61.7 °F 56.3 °F 82% 29.97 in 7.0 mi North 21.9 mph 26.5 mph 0.02 in Rain Light Rain
6:55 PM 61.5 °F 55.9 °F 82% 29.97 in 10.0 mi North 17.3 mph - 0.03 in   Overcast
7:15 PM 62.1 °F 55.6 °F 79% 29.97 in 10.0 mi North 21.9 mph 25.3 mph N/A   Overcast
7:35 PM 62.2 °F 56.1 °F 80% 29.97 in 10.0 mi North 18.4 mph 25.3 mph N/A   Mostly Cloudy
7:55 PM 61.9 °F 54.5 °F 77% 29.99 in 10.0 mi North 18.4 mph 29.9 mph N/A   Overcast
8:15 PM 61.5 °F 54.7 °F 78% 29.99 in 10.0 mi North 16.1 mph - N/A   Overcast
8:35 PM 61.2 °F 54.1 °F 78% 29.99 in 10.0 mi North 15.0 mph - N/A   Overcast
8:55 PM 60.3 °F 54.3 °F 81% 30.00 in 10.0 mi North 12.7 mph - N/A   Mostly Cloudy
9:35 PM 59.9 °F 52.7 °F 77% 30.05 in 10.0 mi North 9.2 mph - N/A   Overcast
10:15 PM 59.5 °F 51.8 °F 76% 30.06 in 10.0 mi North 11.5 mph - N/A   Overcast
10:35 PM 59.2 °F 50.9 °F 74% 30.05 in 10.0 mi North 13.8 mph - N/A   Overcast
10:55 PM 59.0 °F 50.9 °F 74% 30.05 in 10.0 mi North 15.0 mph - N/A   Overcast
11:15 PM 58.8 °F 50.4 °F 73% 30.04 in 10.0 mi NNW 16.1 mph - N/A   Overcast
11:35 PM 58.3 °F 50.5 °F 75% 30.05 in 10.0 mi NNW 15.0 mph - N/A   Overcast
11:55 PM 58.1 °F 50.0 °F 74% 30.06 in 10.0 mi NNW 13.8 mph - N/A   Overcast